Time;durP1;ratioP1;P1;durP2;ratioP2;P2;SDS_P1;SDS_P2;PMS_P1;PMS_P2;Temp;Humidity;BMP_temperature;BMP_pressure;BME280_temperature;BME280_humidity;BME280_pressure;Samples;Min_cycle;Max_cycle;Signal;HPM_P1;HPM_P2
2023/07/28 00:00:57;;;;;;;16.50;10.40;;;17.50;99.90;;;;;;5006208;28;20181;-75
2023/07/28 00:03:43;;;;;;;11.95;10.68;;;17.50;99.90;;;;;;5041727;28;20041;-75
2023/07/28 00:06:29;;;;;;;10.98;9.88;;;17.50;99.90;;;;;;5017744;28;20045;-74
2023/07/28 00:09:15;;;;;;;12.85;10.82;;;17.50;99.90;;;;;;5011840;28;20071;-74
2023/07/28 00:12:01;;;;;;;13.32;10.30;;;17.50;99.90;;;;;;5042156;28;20033;-75
2023/07/28 00:14:47;;;;;;;10.48;8.95;;;17.50;99.90;;;;;;5026486;28;20037;-75
2023/07/28 00:17:33;;;;;;;12.68;9.30;;;17.50;99.90;;;;;;5041792;28;20389;-75
2023/07/28 00:20:20;;;;;;;10.65;8.05;;;17.50;99.90;;;;;;5032515;28;20044;-75
2023/07/28 00:23:07;;;;;;;9.55;8.52;;;17.50;99.90;;;;;;5018997;28;20116;-74
2023/07/28 00:25:53;;;;;;;10.53;8.60;;;17.50;99.90;;;;;;5028689;28;20127;-74
2023/07/28 00:28:39;;;;;;;9.20;8.30;;;17.50;99.90;;;;;;5027290;28;20533;-74
2023/07/28 00:31:25;;;;;;;9.32;8.48;;;17.50;99.90;;;;;;5001296;28;20065;-75
2023/07/28 00:34:11;;;;;;;10.10;7.93;;;17.50;99.90;;;;;;5017721;28;20416;-75
2023/07/28 00:36:57;;;;;;;10.52;7.78;;;17.50;99.90;;;;;;5008496;28;20046;-75
2023/07/28 00:39:43;;;;;;;10.98;8.30;;;17.50;99.90;;;;;;5035967;28;20120;-74
2023/07/28 00:42:29;;;;;;;10.80;8.07;;;17.50;99.90;;;;;;5036319;28;20079;-75
2023/07/28 00:45:15;;;;;;;13.73;8.57;;;17.50;99.90;;;;;;5002434;28;20045;-75
2023/07/28 00:48:02;;;;;;;8.75;7.75;;;17.50;99.90;;;;;;5001437;28;20092;-75
2023/07/28 00:50:49;;;;;;;8.57;7.07;;;17.50;99.90;;;;;;5039573;28;20051;-75
2023/07/28 00:53:35;;;;;;;9.98;7.97;;;17.50;99.90;;;;;;5039631;28;20051;-75
2023/07/28 00:56:21;;;;;;;8.45;7.18;;;17.50;99.90;;;;;;5025360;28;20067;-75
2023/07/28 00:59:07;;;;;;;9.23;7.57;;;17.50;99.90;;;;;;5018532;28;20103;-75
2023/07/28 01:01:53;;;;;;;10.50;7.70;;;17.50;99.90;;;;;;5019177;28;20103;-75
2023/07/28 01:04:39;;;;;;;9.52;7.50;;;17.50;99.90;;;;;;5030863;28;20049;-75
2023/07/28 01:07:46;;;;;;;10.07;7.25;;;17.50;99.90;;;;;;5028214;28;20041;-75
2023/07/28 01:10:32;;;;;;;9.48;7.35;;;17.50;99.90;;;;;;5032764;28;20056;-75
2023/07/28 01:13:18;;;;;;;8.85;7.47;;;17.50;99.90;;;;;;5028404;28;20049;-75
2023/07/28 01:16:04;;;;;;;9.13;8.02;;;17.50;99.90;;;;;;5013414;28;20049;-75
2023/07/28 01:18:50;;;;;;;7.60;6.90;;;17.50;99.90;;;;;;5008073;28;20056;-75
2023/07/28 01:21:36;;;;;;;9.27;7.95;;;17.50;99.90;;;;;;5038963;28;20072;-75
2023/07/28 01:24:29;;;;;;;8.70;7.80;;;17.50;99.90;;;;;;5029956;28;20049;-75
2023/07/28 01:27:15;;;;;;;8.75;7.93;;;17.50;99.90;;;;;;5012712;28;20095;-75
2023/07/28 01:30:01;;;;;;;8.65;7.53;;;17.50;99.90;;;;;;4999904;28;20115;-75
2023/07/28 01:32:48;;;;;;;8.35;7.60;;;17.50;99.90;;;;;;5011795;28;20038;-75
2023/07/28 01:35:36;;;;;;;8.85;7.00;;;17.50;99.90;;;;;;4982872;28;20133;-75
2023/07/28 01:38:22;;;;;;;8.80;6.80;;;17.50;99.90;;;;;;5004811;28;20085;-76
2023/07/28 01:41:08;;;;;;;7.72;7.03;;;17.60;99.90;;;;;;5012830;28;20633;-76
2023/07/28 01:43:55;;;;;;;7.60;6.90;;;17.60;99.90;;;;;;5039519;28;20049;-75
2023/07/28 01:46:41;;;;;;;7.65;6.95;;;17.60;99.90;;;;;;5040197;28;20872;-75
2023/07/28 01:49:27;;;;;;;9.25;7.13;;;17.50;99.90;;;;;;5013895;28;20043;-75
2023/07/28 01:52:13;;;;;;;8.02;6.82;;;17.60;99.90;;;;;;5031997;28;20037;-75
2023/07/28 01:54:59;;;;;;;8.30;7.43;;;17.60;99.90;;;;;;5021260;28;20056;-75
2023/07/28 01:58:00;;;;;;;7.45;6.47;;;17.60;99.90;;;;;;5038608;28;20047;-76
2023/07/28 02:00:46;;;;;;;9.45;6.50;;;17.60;99.90;;;;;;5018752;28;20048;-75
2023/07/28 02:03:32;;;;;;;7.55;6.85;;;17.50;99.90;;;;;;5000456;28;20157;-75
2023/07/28 02:06:18;;;;;;;7.57;6.90;;;17.50;99.90;;;;;;5016119;28;20458;-75
2023/07/28 02:09:04;;;;;;;9.00;6.80;;;17.50;99.90;;;;;;5022249;28;20679;-75
2023/07/28 02:11:50;;;;;;;6.97;6.32;;;17.50;99.90;;;;;;5039315;28;20168;-74
2023/07/28 02:14:36;;;;;;;7.18;6.50;;;17.50;99.90;;;;;;5029090;28;20069;-76
2023/07/28 02:17:22;;;;;;;6.75;6.15;;;17.50;99.90;;;;;;5013667;28;20034;-75
2023/07/28 02:20:12;;;;;;;7.00;6.03;;;17.60;99.90;;;;;;5000086;28;20172;-75
2023/07/28 02:22:58;;;;;;;9.40;6.35;;;17.50;99.90;;;;;;5006712;28;20037;-75
2023/07/28 02:25:45;;;;;;;7.70;6.47;;;17.50;99.90;;;;;;5031382;28;20411;-75
2023/07/28 02:28:31;;;;;;;7.43;5.57;;;17.50;99.90;;;;;;5022996;28;20040;-75
2023/07/28 02:31:17;;;;;;;8.13;5.63;;;17.50;99.90;;;;;;5039412;28;20040;-75
2023/07/28 02:34:03;;;;;;;7.10;5.80;;;17.60;99.90;;;;;;5019345;28;20124;-75
2023/07/28 02:36:49;;;;;;;8.38;5.18;;;17.60;99.90;;;;;;5004651;28;20049;-75
2023/07/28 02:39:37;;;;;;;6.32;4.63;;;17.50;99.90;;;;;;5006437;28;20167;-75
2023/07/28 02:42:23;;;;;;;8.00;4.70;;;17.60;99.90;;;;;;5021194;28;20056;-76
2023/07/28 02:45:10;;;;;;;6.43;4.85;;;17.60;99.90;;;;;;5038793;28;20059;-75
2023/07/28 02:47:57;;;;;;;7.95;4.70;;;17.50;99.90;;;;;;5040048;28;20377;-75
2023/07/28 02:50:47;;;;;;;6.88;5.05;;;17.50;99.90;;;;;;5025116;28;20441;-75
2023/07/28 02:53:33;;;;;;;6.68;4.20;;;17.50;99.90;;;;;;5038117;28;20361;-75
2023/07/28 02:56:20;;;;;;;4.88;4.20;;;17.50;99.90;;;;;;5024445;28;20113;-75
2023/07/28 02:59:06;;;;;;;12.83;5.77;;;17.50;99.90;;;;;;5034748;28;20032;-75
2023/07/28 03:01:52;;;;;;;6.13;3.60;;;17.50;99.90;;;;;;5039745;28;20052;-75
2023/07/28 03:04:38;;;;;;;6.30;4.20;;;17.50;99.90;;;;;;5027091;28;20120;-75
2023/07/28 03:07:24;;;;;;;4.70;3.50;;;17.50;99.90;;;;;;5017149;28;20441;-75
2023/07/28 03:10:16;;;;;;;3.95;3.05;;;17.50;99.90;;;;;;4999631;28;20049;-77
2023/07/28 03:13:02;;;;;;;5.57;3.30;;;17.60;99.90;;;;;;5001066;28;20056;-77
2023/07/28 03:15:48;;;;;;;6.38;3.30;;;17.50;99.90;;;;;;5000989;28;20048;-77
2023/07/28 03:18:34;;;;;;;4.32;3.40;;;17.60;99.90;;;;;;5029106;28;20037;-77
2023/07/28 03:21:20;;;;;;;6.25;2.97;;;17.60;99.90;;;;;;5035920;28;20041;-77
2023/07/28 03:24:06;;;;;;;5.63;2.90;;;17.50;99.90;;;;;;5017877;28;20107;-77
2023/07/28 03:26:52;;;;;;;4.35;2.60;;;17.60;99.90;;;;;;5018573;28;20470;-76
2023/07/28 03:29:38;;;;;;;3.65;2.50;;;17.60;99.90;;;;;;5019136;28;20075;-77
2023/07/28 03:32:24;;;;;;;3.72;2.90;;;17.50;99.90;;;;;;5018608;28;20083;-77
2023/07/28 03:35:10;;;;;;;5.20;2.53;;;17.60;99.90;;;;;;5012344;28;20128;-77
2023/07/28 03:37:56;;;;;;;3.63;2.90;;;17.60;99.90;;;;;;5000105;28;20056;-77
2023/07/28 03:40:43;;;;;;;4.57;2.45;;;17.60;99.90;;;;;;4996020;28;20239;-77
2023/07/28 03:43:29;;;;;;;2.95;2.28;;;17.60;99.90;;;;;;5021560;28;20123;-77
2023/07/28 03:46:15;;;;;;;6.43;2.63;;;17.60;99.90;;;;;;5022689;28;20049;-76
2023/07/28 03:49:01;;;;;;;3.63;2.38;;;17.60;99.90;;;;;;5026473;28;20037;-77
2023/07/28 03:51:47;;;;;;;5.38;2.20;;;17.60;99.90;;;;;;4998856;28;20053;-76
2023/07/28 03:54:33;;;;;;;2.40;2.10;;;17.60;99.90;;;;;;5000136;28;20101;-77
2023/07/28 03:57:19;;;;;;;2.78;2.20;;;17.60;99.90;;;;;;4999349;28;20038;-77
2023/07/28 04:00:06;;;;;;;2.63;2.20;;;17.60;99.90;;;;;;5020576;28;20507;-77
2023/07/28 04:02:52;;;;;;;3.10;1.92;;;17.60;99.90;;;;;;5037923;28;20110;-77
2023/07/28 04:05:38;;;;;;;3.17;2.00;;;17.60;99.90;;;;;;5024338;28;20485;-77
2023/07/28 04:08:24;;;;;;;4.82;2.08;;;17.60;99.90;;;;;;5026175;28;20037;-77
2023/07/28 04:11:10;;;;;;;6.30;1.90;;;17.60;99.90;;;;;;5008373;28;20790;-76
2023/07/28 04:13:56;;;;;;;7.75;2.20;;;17.60;99.90;;;;;;5027253;28;20040;-77
2023/07/28 04:16:42;;;;;;;3.08;1.65;;;17.60;99.90;;;;;;5033495;28;20033;-76
2023/07/28 04:19:29;;;;;;;3.13;1.55;;;17.60;99.90;;;;;;5029961;28;20045;-76
2023/07/28 04:22:20;;;;;;;3.60;1.75;;;17.60;99.90;;;;;;5026811;28;20086;-76
2023/07/28 04:25:07;;;;;;;2.72;1.70;;;17.60;99.90;;;;;;5036579;28;20524;-76
2023/07/28 04:27:53;;;;;;;3.55;1.67;;;17.60;99.90;;;;;;5034308;28;20469;-77
2023/07/28 04:30:40;;;;;;;6.32;2.00;;;17.60;99.90;;;;;;5036637;28;20052;-76
2023/07/28 04:33:26;;;;;;;1.92;1.73;;;17.60;99.90;;;;;;5023622;28;20048;-76
2023/07/28 04:36:12;;;;;;;5.50;2.08;;;17.60;99.90;;;;;;5020937;28;20053;-77
2023/07/28 04:38:58;;;;;;;4.10;2.38;;;17.60;99.90;;;;;;5015174;28;20041;-78
2023/07/28 04:41:44;;;;;;;4.75;2.50;;;17.60;99.90;;;;;;5042532;28;20083;-77
2023/07/28 04:44:30;;;;;;;5.15;2.70;;;17.50;99.90;;;;;;5027257;28;20505;-77
2023/07/28 04:47:16;;;;;;;2.80;2.50;;;17.50;99.90;;;;;;5036601;28;20076;-77
2023/07/28 04:50:02;;;;;;;3.47;2.30;;;17.50;99.90;;;;;;5029342;28;20056;-77
2023/07/28 04:52:48;;;;;;;4.05;2.50;;;17.50;99.90;;;;;;5014714;28;20044;-76
2023/07/28 04:55:34;;;;;;;5.10;2.65;;;17.50;99.90;;;;;;5021567;28;20107;-76
2023/07/28 04:58:21;;;;;;;4.35;2.53;;;17.50;99.90;;;;;;5002508;28;20110;-76
2023/07/28 05:01:09;;;;;;;4.38;2.50;;;17.50;99.90;;;;;;4990721;28;20426;-76
2023/07/28 05:03:54;;;;;;;5.90;2.70;;;17.50;99.90;;;;;;5005434;28;20095;-76
2023/07/28 05:06:41;;;;;;;3.08;2.60;;;17.50;99.90;;;;;;5041737;28;20480;-76
2023/07/28 05:09:28;;;;;;;3.22;2.70;;;17.50;99.90;;;;;;5029653;28;20461;-76
2023/07/28 05:12:13;;;;;;;3.25;2.53;;;17.60;99.90;;;;;;5002090;28;20049;-76
2023/07/28 05:15:00;;;;;;;3.67;2.90;;;17.60;99.90;;;;;;5026982;28;20029;-77
2023/07/28 05:17:45;;;;;;;4.97;3.00;;;17.60;99.90;;;;;;5037257;28;20033;-76
2023/07/28 05:20:31;;;;;;;3.47;2.55;;;17.60;99.90;;;;;;5022839;28;20120;-77
2023/07/28 05:23:17;;;;;;;4.80;3.08;;;17.60;99.90;;;;;;5020306;28;20037;-77
2023/07/28 05:26:03;;;;;;;3.85;2.92;;;17.60;99.90;;;;;;5000058;28;20523;-77
2023/07/28 05:28:50;;;;;;;6.93;3.40;;;17.60;99.90;;;;;;5037137;28;20131;-77
2023/07/28 05:31:36;;;;;;;5.25;2.83;;;17.60;99.90;;;;;;5019427;28;20033;-77
2023/07/28 05:34:22;;;;;;;5.38;2.97;;;17.60;99.90;;;;;;5021638;28;20633;-77
2023/07/28 05:37:08;;;;;;;4.60;2.85;;;17.60;99.90;;;;;;5019986;28;20067;-77
2023/07/28 05:39:54;;;;;;;4.82;2.78;;;17.70;99.90;;;;;;4988996;28;20367;-77
2023/07/28 05:42:40;;;;;;;6.47;3.63;;;17.60;99.90;;;;;;5014106;28;20045;-77
2023/07/28 05:45:26;;;;;;;5.70;3.22;;;17.60;99.90;;;;;;5023588;28;20045;-77
2023/07/28 05:48:12;;;;;;;3.55;2.83;;;17.70;99.90;;;;;;5033880;28;20047;-77
2023/07/28 05:50:59;;;;;;;8.20;3.10;;;17.70;99.90;;;;;;5008477;28;20107;-77
2023/07/28 05:53:45;;;;;;;3.00;2.70;;;17.70;99.90;;;;;;5015183;28;20060;-77
2023/07/28 05:56:31;;;;;;;5.07;3.08;;;17.60;99.90;;;;;;5016231;28;20045;-76
2023/07/28 05:59:17;;;;;;;4.28;2.80;;;17.60;99.90;;;;;;5019194;28;20073;-76
2023/07/28 06:02:03;;;;;;;3.75;2.30;;;17.60;99.90;;;;;;5018859;28;20091;-77
2023/07/28 06:04:49;;;;;;;4.28;2.70;;;17.70;99.90;;;;;;5037790;28;20033;-77
2023/07/28 06:07:35;;;;;;;3.95;2.40;;;17.70;99.90;;;;;;5034345;28;20611;-77
2023/07/28 06:10:21;;;;;;;2.45;2.10;;;17.70;99.90;;;;;;5014901;28;20057;-77
2023/07/28 06:13:07;;;;;;;3.75;2.35;;;17.70;99.90;;;;;;5019613;28;20045;-76
2023/07/28 06:15:54;;;;;;;4.47;2.80;;;17.80;99.90;;;;;;5020613;28;20041;-76
2023/07/28 06:18:40;;;;;;;3.35;2.38;;;17.80;99.90;;;;;;5010856;28;20129;-76
2023/07/28 06:21:26;;;;;;;2.80;2.50;;;17.80;99.90;;;;;;5010762;28;20033;-76
2023/07/28 06:24:12;;;;;;;4.05;2.83;;;17.70;99.90;;;;;;5031466;28;20477;-76
2023/07/28 06:26:59;;;;;;;2.88;2.60;;;17.80;99.90;;;;;;5021911;28;20063;-77
2023/07/28 06:29:45;;;;;;;4.68;2.70;;;17.70;99.90;;;;;;5019015;28;20038;-77
2023/07/28 06:32:31;;;;;;;4.78;2.70;;;17.80;99.90;;;;;;5027777;28;20385;-76
2023/07/28 06:35:17;;;;;;;4.75;3.30;;;17.80;99.90;;;;;;5014845;28;20052;-77
2023/07/28 06:38:03;;;;;;;4.35;3.30;;;17.80;99.90;;;;;;5017903;28;20057;-75
2023/07/28 06:40:49;;;;;;;4.28;3.70;;;17.80;99.90;;;;;;4999959;28;20037;-76
2023/07/28 06:43:35;;;;;;;6.55;3.42;;;17.80;99.90;;;;;;5016100;28;20041;-75
2023/07/28 06:46:22;;;;;;;5.70;3.92;;;17.80;99.90;;;;;;5005356;28;20045;-76
2023/07/28 06:49:08;;;;;;;3.78;3.47;;;17.80;99.90;;;;;;5015789;28;20041;-75
2023/07/28 06:51:54;;;;;;;3.88;3.47;;;17.90;99.90;;;;;;5034669;28;20129;-76
2023/07/28 06:54:40;;;;;;;3.80;3.38;;;17.80;99.90;;;;;;5012869;28;20186;-76
2023/07/28 06:57:26;;;;;;;7.07;4.22;;;17.90;99.90;;;;;;5038364;28;20032;-76
2023/07/28 07:00:12;;;;;;;4.53;3.80;;;17.90;99.90;;;;;;4999627;28;20116;-75
2023/07/28 07:02:58;;;;;;;4.03;3.60;;;17.90;99.90;;;;;;4991232;28;20052;-76
2023/07/28 07:05:44;;;;;;;5.65;3.97;;;18.00;99.90;;;;;;5035815;28;20481;-76
2023/07/28 07:08:30;;;;;;;4.85;3.70;;;18.00;99.90;;;;;;5039038;28;20037;-75
2023/07/28 07:11:16;;;;;;;5.78;3.50;;;18.00;99.90;;;;;;5024183;28;20149;-75
2023/07/28 07:14:02;;;;;;;4.90;3.53;;;18.00;99.90;;;;;;4994511;28;20044;-76
2023/07/28 07:16:49;;;;;;;7.47;3.75;;;18.00;99.90;;;;;;5020577;28;20084;-75
2023/07/28 07:19:34;;;;;;;4.07;3.67;;;18.10;99.90;;;;;;5036042;28;20410;-75
2023/07/28 07:22:20;;;;;;;4.90;3.80;;;18.10;99.90;;;;;;5018790;28;20045;-76
2023/07/28 07:25:07;;;;;;;4.40;3.80;;;18.20;99.90;;;;;;5016940;28;20037;-75
2023/07/28 07:27:53;;;;;;;5.05;3.70;;;18.20;99.90;;;;;;5011540;28;20038;-75
2023/07/28 07:30:40;;;;;;;7.85;3.80;;;18.20;99.90;;;;;;5010285;28;20034;-76
2023/07/28 07:33:27;;;;;;;4.75;3.67;;;18.30;99.90;;;;;;5016560;28;20099;-76
2023/07/28 07:36:16;;;;;;;4.07;3.67;;;18.40;99.90;;;;;;5013113;28;20041;-76
2023/07/28 07:39:04;;;;;;;5.40;3.65;;;18.50;99.90;;;;;;5006754;28;20142;-76
2023/07/28 07:41:50;;;;;;;;;;;18.50;99.90;;;;;;5019554;28;20041;-78
2023/07/28 07:44:36;;;;;;;5.43;4.28;;;18.50;99.90;;;;;;5020916;28;19909;-78
2023/07/28 07:47:22;;;;;;;7.22;5.10;;;18.40;99.90;;;;;;5019321;28;20045;-78
2023/07/28 07:50:09;;;;;;;6.90;5.50;;;18.30;99.90;;;;;;5026843;28;20041;-78
2023/07/28 07:52:55;;;;;;;5.60;5.00;;;18.20;99.90;;;;;;5001249;28;20041;-78
2023/07/28 07:55:41;;;;;;;8.88;5.22;;;18.20;99.90;;;;;;5031950;28;20041;-78
2023/07/28 07:58:27;;;;;;;8.55;6.13;;;18.10;99.90;;;;;;5027689;28;20080;-77
2023/07/28 08:01:14;;;;;;;10.77;6.63;;;18.10;99.90;;;;;;5029385;28;20132;-78
2023/07/28 08:04:00;;;;;;;7.20;5.63;;;18.10;99.90;;;;;;5031981;28;20742;-77
2023/07/28 08:06:46;;;;;;;9.55;6.53;;;18.10;99.90;;;;;;5033093;28;20048;-77
2023/07/28 08:09:34;;;;;;;7.60;6.80;;;18.10;99.90;;;;;;5035963;28;20052;-76
2023/07/28 08:12:20;;;;;;;6.93;6.22;;;18.10;99.90;;;;;;5016481;28;20038;-76
2023/07/28 08:15:06;;;;;;;7.53;6.72;;;18.20;99.90;;;;;;5022462;28;20080;-77
2023/07/28 08:17:52;;;;;;;8.88;6.38;;;18.20;99.90;;;;;;5008366;28;20033;-77
2023/07/28 08:20:38;;;;;;;6.60;5.90;;;18.20;99.90;;;;;;5036090;28;20369;-77
2023/07/28 08:23:24;;;;;;;6.82;6.05;;;18.20;99.90;;;;;;5010248;28;20037;-77
2023/07/28 08:26:10;;;;;;;7.30;6.60;;;18.30;99.90;;;;;;5022932;28;20124;-77
2023/07/28 08:28:56;;;;;;;6.55;5.95;;;18.30;99.90;;;;;;5035569;28;20362;-77
2023/07/28 08:31:42;;;;;;;7.30;5.95;;;18.30;99.90;;;;;;5034984;28;20742;-77
2023/07/28 08:34:28;;;;;;;7.47;5.85;;;18.40;99.90;;;;;;5014280;28;20033;-77
2023/07/28 08:37:14;;;;;;;6.03;5.45;;;18.40;99.90;;;;;;5046072;28;20115;-77
2023/07/28 08:40:00;;;;;;;7.30;5.97;;;18.50;99.90;;;;;;5027582;28;20060;-77
2023/07/28 08:42:47;;;;;;;6.18;5.68;;;18.60;99.90;;;;;;5022631;28;20107;-77
2023/07/28 08:45:33;;;;;;;6.70;5.97;;;18.60;99.90;;;;;;5036581;28;20044;-78
2023/07/28 08:48:19;;;;;;;7.05;5.75;;;18.70;99.90;;;;;;5036134;28;20034;-77
2023/07/28 08:51:08;;;;;;;5.60;5.10;;;18.80;99.90;;;;;;5013588;28;20450;-77
2023/07/28 08:53:57;;;;;;;6.53;5.40;;;18.90;99.90;;;;;;5016084;28;20374;-77
2023/07/28 08:56:45;;;;;;;5.95;5.25;;;18.90;99.90;;;;;;5007897;28;20124;-77
2023/07/28 08:59:31;;;;;;;5.75;5.22;;;18.90;99.90;;;;;;5024350;28;20049;-76
2023/07/28 09:02:18;;;;;;;7.70;5.47;;;18.90;99.90;;;;;;5010905;28;20041;-77
2023/07/28 09:05:07;;;;;;;5.47;4.97;;;18.90;99.90;;;;;;5010443;28;20041;-74
2023/07/28 09:07:54;;;;;;;5.45;4.95;;;19.00;99.90;;;;;;5010813;28;20100;-74
2023/07/28 09:10:42;;;;;;;6.50;4.80;;;19.10;99.90;;;;;;5016009;28;20096;-75
2023/07/28 09:13:30;;;;;;;;;;;19.00;99.90;;;;;;5013385;28;20038;-75
2023/07/28 09:16:20;;;;;;;5.55;4.65;;;19.10;99.90;;;;;;5013484;28;19995;-74
2023/07/28 09:19:07;;;;;;;5.97;5.13;;;19.10;99.90;;;;;;5010452;28;20041;-74
2023/07/28 09:22:00;;;;;;;5.40;4.90;;;19.10;99.90;;;;;;5022156;28;20101;-75
2023/07/28 09:24:47;;;;;;;7.18;5.47;;;19.00;99.90;;;;;;5024017;28;20046;-75
2023/07/28 09:27:32;;;;;;;6.03;5.30;;;19.00;99.90;;;;;;5019429;28;20128;-74
2023/07/28 09:30:19;;;;;;;7.18;5.85;;;19.10;99.90;;;;;;5039103;28;20826;-74
2023/07/28 09:33:05;;;;;;;6.72;5.80;;;19.10;99.90;;;;;;5037874;28;20044;-75
2023/07/28 09:35:51;;;;;;;6.47;5.50;;;19.10;99.90;;;;;;4998334;28;20067;-75
2023/07/28 09:38:41;;;;;;;5.45;4.95;;;19.10;99.90;;;;;;5024109;28;20036;-74
2023/07/28 09:41:29;;;;;;;5.60;5.00;;;19.20;99.90;;;;;;5011584;28;20095;-74
2023/07/28 09:44:18;;;;;;;6.10;5.47;;;19.30;99.90;;;;;;5024177;28;20739;-75
2023/07/28 09:47:04;;;;;;;5.60;5.10;;;19.40;99.90;;;;;;5028500;28;20044;-74
2023/07/28 09:49:50;;;;;;;5.47;4.97;;;19.50;99.90;;;;;;5028183;28;20041;-74
2023/07/28 09:52:45;;;;;;;4.68;4.18;;;19.60;99.90;;;;;;5029210;28;20469;-74
2023/07/28 09:55:31;;;;;;;6.82;4.20;;;19.70;99.90;;;;;;5005436;28;20049;-74
2023/07/28 09:58:19;;;;;;;5.88;4.50;;;19.80;99.90;;;;;;4991799;28;20045;-75
2023/07/28 10:01:06;;;;;;;5.17;4.30;;;20.00;99.90;;;;;;5001210;28;20049;-75
2023/07/28 10:03:52;;;;;;;5.07;3.80;;;20.20;99.90;;;;;;4999477;28;20307;-75
2023/07/28 10:06:38;;;;;;;4.07;3.50;;;20.30;99.90;;;;;;5000572;28;20060;-77
2023/07/28 10:09:27;;;;;;;4.55;3.10;;;20.50;99.90;;;;;;5011279;28;20366;-78
2023/07/28 10:12:25;;;;;;;5.03;3.20;;;20.50;99.90;;;;;;5023416;28;20029;-77
2023/07/28 10:15:15;;;;;;;3.10;2.80;;;20.60;99.90;;;;;;5016056;28;20026;-78
2023/07/28 10:18:01;;;;;;;4.57;2.72;;;20.80;99.90;;;;;;4992446;28;20042;-76
2023/07/28 10:20:49;;;;;;;5.65;2.70;;;21.00;99.90;;;;;;5029793;28;20033;-76
2023/07/28 10:23:37;;;;;;;10.85;2.67;;;21.00;99.90;;;;;;5015467;28;20042;-78
2023/07/28 10:26:41;;;;;;;3.50;2.72;;;21.20;99.90;;;;;;5015962;28;20103;-77
2023/07/28 10:29:27;;;;;;;3.15;2.63;;;21.10;99.90;;;;;;5000264;28;20033;-77
2023/07/28 10:32:13;;;;;;;2.80;2.40;;;21.20;99.90;;;;;;5020800;28;20036;-77
2023/07/28 10:35:00;;;;;;;3.70;2.15;;;21.30;99.90;;;;;;5038669;28;20033;-78
2023/07/28 10:37:46;;;;;;;3.40;2.00;;;21.40;99.90;;;;;;5026481;28;20030;-77
2023/07/28 10:40:34;;;;;;;3.80;1.88;;;21.30;99.90;;;;;;4997541;28;20037;-76
2023/07/28 10:43:22;;;;;;;3.15;1.73;;;21.50;99.90;;;;;;5040085;28;20033;-77
2023/07/28 10:46:09;;;;;;;7.05;1.90;;;21.60;99.90;;;;;;5032545;28;20462;-77
2023/07/28 10:48:55;;;;;;;4.25;2.13;;;21.60;99.90;;;;;;5019067;28;20434;-76
2023/07/28 10:51:41;;;;;;;1.92;1.73;;;21.50;99.90;;;;;;5006851;28;20057;-77
2023/07/28 10:54:27;;;;;;;3.35;1.70;;;21.60;99.90;;;;;;5011734;28;20029;-77
2023/07/28 10:57:13;;;;;;;3.38;1.90;;;21.80;99.90;;;;;;5026054;28;20097;-78
2023/07/28 11:00:01;;;;;;;2.67;2.10;;;22.10;99.90;;;;;;5040501;28;20037;-76
2023/07/28 11:02:51;;;;;;;3.33;2.00;;;22.40;99.90;;;;;;5018730;28;20478;-77
2023/07/28 11:05:37;;;;;;;2.92;2.30;;;22.20;99.90;;;;;;5007921;28;20077;-75
2023/07/28 11:08:23;;;;;;;2.85;1.90;;;22.10;99.90;;;;;;5035075;28;20036;-75
2023/07/28 11:11:10;;;;;;;1.92;1.73;;;22.10;99.90;;;;;;4996544;28;20386;-76
2023/07/28 11:13:56;;;;;;;4.47;2.20;;;22.00;99.90;;;;;;5022245;28;20037;-75
2023/07/28 11:16:44;;;;;;;4.82;2.10;;;21.80;99.90;;;;;;5037374;28;20068;-75
2023/07/28 11:19:30;;;;;;;3.58;1.85;;;21.80;99.90;;;;;;5015925;28;20053;-75
2023/07/28 11:22:19;;;;;;;2.50;2.25;;;21.80;99.90;;;;;;4998154;28;20070;-75
2023/07/28 11:25:09;;;;;;;3.38;2.05;;;21.90;99.90;;;;;;4986210;28;20038;-75
2023/07/28 11:27:55;;;;;;;2.50;2.08;;;21.80;99.90;;;;;;5025442;28;20041;-75
2023/07/28 11:30:43;;;;;;;3.08;1.92;;;21.80;99.90;;;;;;5040756;28;20068;-76
2023/07/28 11:33:29;;;;;;;2.78;1.90;;;22.00;99.90;;;;;;5020385;28;20085;-75
2023/07/28 11:36:25;;;;;;;2.03;1.80;;;22.10;99.90;;;;;;5039034;28;20128;-74
2023/07/28 11:39:10;;;;;;;3.28;2.00;;;22.10;99.90;;;;;;5019893;28;20037;-76
2023/07/28 11:41:57;;;;;;;4.57;1.95;;;22.20;99.90;;;;;;5016679;28;20152;-75
2023/07/28 11:44:43;;;;;;;2.28;1.83;;;22.20;99.90;;;;;;5003739;28;20100;-74
2023/07/28 11:47:30;;;;;;;2.65;1.67;;;22.20;99.90;;;;;;5016651;28;20049;-76
2023/07/28 11:50:26;;;;;;;2.10;1.88;;;22.10;99.90;;;;;;5015920;28;20029;-74
2023/07/28 11:53:12;;;;;;;3.67;2.00;;;22.00;99.90;;;;;;5010454;28;20052;-76
2023/07/28 11:56:01;;;;;;;2.80;1.98;;;22.00;99.90;;;;;;5013462;28;20045;-76
2023/07/28 11:58:55;;;;;;;3.90;1.70;;;22.10;99.90;;;;;;5005976;28;20050;-75
2023/07/28 12:01:58;;;;;;;2.75;1.50;;;22.10;99.90;;;;;;4997439;28;20033;-75
2023/07/28 12:04:47;;;;;;;8.48;1.80;;;22.10;99.90;;;;;;4995611;28;20042;-75
2023/07/28 12:07:33;;;;;;;1.92;1.63;;;22.30;99.90;;;;;;5016662;28;20172;-75
2023/07/28 12:10:19;;;;;;;2.28;1.60;;;22.20;99.90;;;;;;5016405;28;20060;-75
2023/07/28 12:13:07;;;;;;;3.27;1.70;;;22.20;99.90;;;;;;5008966;28;20058;-75
2023/07/28 12:15:53;;;;;;;4.45;1.83;;;22.40;99.90;;;;;;5011235;28;20709;-74
2023/07/28 12:18:40;;;;;;;1.88;1.67;;;22.40;99.90;;;;;;5013799;28;20371;-75
2023/07/28 12:21:26;;;;;;;2.63;1.63;;;22.40;99.90;;;;;;5017772;28;20054;-75
2023/07/28 12:24:13;;;;;;;4.45;1.88;;;22.40;99.90;;;;;;4995874;28;20041;-75
2023/07/28 12:27:00;;;;;;;3.38;1.63;;;22.30;99.90;;;;;;5013685;28;20052;-75
2023/07/28 12:29:46;;;;;;;4.22;2.10;;;22.40;99.90;;;;;;5017935;28;20129;-74
2023/07/28 12:32:32;;;;;;;3.13;2.20;;;22.50;99.90;;;;;;5014104;28;20096;-75
2023/07/28 12:35:18;;;;;;;3.28;2.60;;;22.70;99.90;;;;;;5008664;28;20042;-75
2023/07/28 12:38:05;;;;;;;3.38;2.30;;;22.80;99.90;;;;;;5010583;28;20042;-75
2023/07/28 12:40:52;;;;;;;4.00;2.17;;;22.70;99.90;;;;;;5012218;28;20132;-75
2023/07/28 12:43:38;;;;;;;2.80;2.20;;;23.00;99.90;;;;;;5006802;28;20069;-75
2023/07/28 12:46:24;;;;;;;2.90;1.90;;;23.00;99.90;;;;;;5007190;28;20515;-75
2023/07/28 12:49:10;;;;;;;2.38;1.90;;;23.20;99.90;;;;;;5032290;28;20076;-75
2023/07/28 12:51:56;;;;;;;3.40;2.22;;;23.50;99.90;;;;;;5037773;28;20037;-75
2023/07/28 12:54:44;;;;;;;2.80;2.13;;;23.20;99.90;;;;;;5009772;28;21245;-75
2023/07/28 12:57:30;;;;;;;3.95;2.20;;;23.10;99.90;;;;;;5030892;28;20053;-75
2023/07/28 13:00:16;;;;;;;3.72;2.20;;;22.90;99.90;;;;;;5010104;28;20041;-75
2023/07/28 13:03:02;;;;;;;3.00;2.40;;;22.90;99.90;;;;;;5022535;28;20051;-75
2023/07/28 13:05:48;;;;;;;2.25;1.90;;;23.00;99.90;;;;;;5018742;28;20033;-75
2023/07/28 13:08:34;;;;;;;4.00;2.00;;;23.00;99.90;;;;;;5019428;28;20072;-74
2023/07/28 13:11:20;;;;;;;2.28;1.95;;;23.10;99.90;;;;;;5021505;28;20045;-75
2023/07/28 13:14:08;;;;;;;3.28;2.38;;;23.10;99.90;;;;;;5006488;28;20041;-76
2023/07/28 13:16:54;;;;;;;4.15;2.20;;;22.90;99.90;;;;;;5023803;28;20052;-76
2023/07/28 13:19:40;;;;;;;6.25;2.60;;;23.00;99.90;;;;;;5016639;28;20073;-76
2023/07/28 13:22:27;;;;;;;2.40;1.88;;;22.90;99.90;;;;;;5018465;28;20128;-76
2023/07/28 13:25:13;;;;;;;3.30;2.17;;;23.00;99.90;;;;;;5009312;28;20053;-76
2023/07/28 13:27:59;;;;;;;2.53;1.80;;;23.20;99.90;;;;;;5018545;28;20041;-75
2023/07/28 13:30:45;;;;;;;3.38;1.90;;;23.20;99.90;;;;;;5004449;28;20037;-75
2023/07/28 13:33:32;;;;;;;2.65;1.85;;;23.40;99.90;;;;;;5041292;28;20119;-74
2023/07/28 13:36:18;;;;;;;4.93;1.95;;;23.40;99.90;;;;;;4997232;28;20072;-75
2023/07/28 13:39:05;;;;;;;4.10;2.05;;;23.50;99.90;;;;;;5001585;28;20076;-75
2023/07/28 13:41:51;;;;;;;2.70;2.10;;;23.30;99.90;;;;;;5005667;28;20128;-74
2023/07/28 13:44:39;;;;;;;4.05;2.28;;;23.30;99.90;;;;;;4997914;28;20557;-74
2023/07/28 13:47:25;;;;;;;2.57;1.90;;;23.40;99.90;;;;;;5012047;28;20110;-75
2023/07/28 13:50:12;;;;;;;3.75;1.80;;;23.60;99.90;;;;;;5017478;28;20045;-74
2023/07/28 13:52:58;;;;;;;4.35;1.90;;;23.60;99.90;;;;;;5013678;28;20076;-75
2023/07/28 13:55:44;;;;;;;2.75;1.83;;;23.80;99.90;;;;;;4995294;28;20103;-75
2023/07/28 13:58:30;;;;;;;2.40;1.75;;;23.70;99.90;;;;;;5004113;28;20042;-75
2023/07/28 14:01:16;;;;;;;2.67;1.80;;;23.60;99.90;;;;;;4997584;28;20073;-74
2023/07/28 14:04:02;;;;;;;3.58;1.58;;;23.70;99.90;;;;;;5008141;28;20617;-75
2023/07/28 14:06:48;;;;;;;2.80;1.90;;;23.80;99.90;;;;;;5010258;28;20060;-75
2023/07/28 14:09:36;;;;;;;2.78;1.98;;;23.80;99.90;;;;;;5007602;28;20053;-75
2023/07/28 14:12:22;;;;;;;2.83;1.85;;;23.80;99.90;;;;;;5000768;28;20033;-76
2023/07/28 14:15:08;;;;;;;3.10;1.60;;;23.90;99.90;;;;;;5020706;28;20041;-77
2023/07/28 14:17:54;;;;;;;2.97;1.80;;;24.00;99.90;;;;;;5011338;28;20120;-75
2023/07/28 14:20:40;;;;;;;3.28;1.80;;;24.40;99.90;;;;;;5009045;28;20037;-76
2023/07/28 14:23:27;;;;;;;5.25;2.17;;;24.70;99.90;;;;;;5018513;28;20357;-77
2023/07/28 14:26:13;;;;;;;3.35;1.98;;;24.50;99.90;;;;;;4987339;28;20493;-76